sensor_id;sensor_type;location;lat;lon;timestamp;P1;durP1;ratioP1;P2;durP2;ratioP2
30147;SDS011;16960;49.404;8.248;2023-04-22T00:01:11;5.13;;;3.77;;
30147;SDS011;16960;49.404;8.248;2023-04-22T00:03:38;2.87;;;2.60;;
30147;SDS011;16960;49.404;8.248;2023-04-22T00:06:06;4.80;;;3.47;;
30147;SDS011;16960;49.404;8.248;2023-04-22T00:08:33;4.13;;;2.50;;
30147;SDS011;16960;49.404;8.248;2023-04-22T00:11:01;3.90;;;2.67;;
30147;SDS011;16960;49.404;8.248;2023-04-22T00:13:28;2.33;;;2.13;;
30147;SDS011;16960;49.404;8.248;2023-04-22T00:15:55;3.47;;;2.93;;
30147;SDS011;16960;49.404;8.248;2023-04-22T00:18:22;2.50;;;2.30;;
30147;SDS011;16960;49.404;8.248;2023-04-22T00:20:50;3.03;;;2.67;;
30147;SDS011;16960;49.404;8.248;2023-04-22T00:23:17;2.80;;;2.60;;
30147;SDS011;16960;49.404;8.248;2023-04-22T00:25:44;3.00;;;2.70;;
30147;SDS011;16960;49.404;8.248;2023-04-22T00:28:12;2.90;;;2.63;;
30147;SDS011;16960;49.404;8.248;2023-04-22T00:30:39;2.60;;;2.40;;
30147;SDS011;16960;49.404;8.248;2023-04-22T00:33:06;2.70;;;2.30;;
30147;SDS011;16960;49.404;8.248;2023-04-22T00:35:33;2.67;;;2.40;;
30147;SDS011;16960;49.404;8.248;2023-04-22T00:38:00;2.90;;;2.60;;
30147;SDS011;16960;49.404;8.248;2023-04-22T00:40:27;2.80;;;2.60;;
30147;SDS011;16960;49.404;8.248;2023-04-22T00:42:54;2.47;;;2.27;;
30147;SDS011;16960;49.404;8.248;2023-04-22T00:45:23;2.67;;;2.33;;
30147;SDS011;16960;49.404;8.248;2023-04-22T00:47:52;3.10;;;2.70;;
30147;SDS011;16960;49.404;8.248;2023-04-22T00:50:19;3.03;;;2.70;;
30147;SDS011;16960;49.404;8.248;2023-04-22T00:52:46;2.53;;;2.10;;
30147;SDS011;16960;49.404;8.248;2023-04-22T00:55:13;2.47;;;2.27;;
30147;SDS011;16960;49.404;8.248;2023-04-22T00:57:40;3.03;;;2.53;;
30147;SDS011;16960;49.404;8.248;2023-04-22T01:00:08;3.00;;;2.30;;
30147;SDS011;16960;49.404;8.248;2023-04-22T01:02:37;2.60;;;2.17;;
30147;SDS011;16960;49.404;8.248;2023-04-22T01:05:05;2.53;;;2.30;;
30147;SDS011;16960;49.404;8.248;2023-04-22T01:07:33;3.20;;;3.00;;
30147;SDS011;16960;49.404;8.248;2023-04-22T01:10:00;3.27;;;2.70;;
30147;SDS011;16960;49.404;8.248;2023-04-22T01:12:28;2.83;;;2.30;;
30147;SDS011;16960;49.404;8.248;2023-04-22T01:14:55;3.53;;;2.60;;
30147;SDS011;16960;49.404;8.248;2023-04-22T01:17:22;2.60;;;2.23;;
30147;SDS011;16960;49.404;8.248;2023-04-22T01:19:51;2.33;;;2.13;;
30147;SDS011;16960;49.404;8.248;2023-04-22T01:22:19;3.73;;;2.23;;
30147;SDS011;16960;49.404;8.248;2023-04-22T01:24:49;2.80;;;2.60;;
30147;SDS011;16960;49.404;8.248;2023-04-22T01:27:16;2.60;;;2.20;;
30147;SDS011;16960;49.404;8.248;2023-04-22T01:29:43;2.80;;;2.13;;
30147;SDS011;16960;49.404;8.248;2023-04-22T01:32:11;2.50;;;2.13;;
30147;SDS011;16960;49.404;8.248;2023-04-22T01:34:38;4.10;;;2.13;;
30147;SDS011;16960;49.404;8.248;2023-04-22T01:37:05;2.60;;;2.10;;
30147;SDS011;16960;49.404;8.248;2023-04-22T01:39:32;2.07;;;1.87;;
30147;SDS011;16960;49.404;8.248;2023-04-22T01:42:02;2.17;;;2.03;;
30147;SDS011;16960;49.404;8.248;2023-04-22T01:44:29;2.50;;;2.00;;
30147;SDS011;16960;49.404;8.248;2023-04-22T01:46:56;2.20;;;1.97;;
30147;SDS011;16960;49.404;8.248;2023-04-22T01:49:23;2.40;;;2.20;;
30147;SDS011;16960;49.404;8.248;2023-04-22T01:51:50;2.10;;;1.93;;
30147;SDS011;16960;49.404;8.248;2023-04-22T01:54:17;2.27;;;2.07;;
30147;SDS011;16960;49.404;8.248;2023-04-22T01:56:49;2.47;;;2.27;;
30147;SDS011;16960;49.404;8.248;2023-04-22T01:59:17;2.50;;;2.30;;
30147;SDS011;16960;49.404;8.248;2023-04-22T02:01:45;2.40;;;2.20;;
30147;SDS011;16960;49.404;8.248;2023-04-22T02:04:12;2.30;;;2.10;;
30147;SDS011;16960;49.404;8.248;2023-04-22T02:06:39;2.37;;;2.17;;
30147;SDS011;16960;49.404;8.248;2023-04-22T02:09:06;2.93;;;2.20;;
30147;SDS011;16960;49.404;8.248;2023-04-22T02:11:33;1.93;;;1.80;;
30147;SDS011;16960;49.404;8.248;2023-04-22T02:14:00;2.10;;;1.97;;
30147;SDS011;16960;49.404;8.248;2023-04-22T02:16:28;2.37;;;2.17;;
30147;SDS011;16960;49.404;8.248;2023-04-22T02:18:55;2.13;;;2.03;;
30147;SDS011;16960;49.404;8.248;2023-04-22T02:21:22;4.13;;;2.20;;
30147;SDS011;16960;49.404;8.248;2023-04-22T02:23:49;2.70;;;2.50;;
30147;SDS011;16960;49.404;8.248;2023-04-22T02:26:16;1.97;;;1.87;;
30147;SDS011;16960;49.404;8.248;2023-04-22T02:28:43;2.80;;;2.20;;
30147;SDS011;16960;49.404;8.248;2023-04-22T02:31:10;2.20;;;2.00;;
30147;SDS011;16960;49.404;8.248;2023-04-22T02:33:38;1.93;;;1.80;;
30147;SDS011;16960;49.404;8.248;2023-04-22T02:36:05;2.20;;;2.00;;
30147;SDS011;16960;49.404;8.248;2023-04-22T02:38:32;1.77;;;1.67;;
30147;SDS011;16960;49.404;8.248;2023-04-22T02:40:59;1.63;;;1.53;;
30147;SDS011;16960;49.404;8.248;2023-04-22T02:43:26;2.20;;;2.00;;
30147;SDS011;16960;49.404;8.248;2023-04-22T02:45:53;2.20;;;2.00;;
30147;SDS011;16960;49.404;8.248;2023-04-22T02:48:20;2.17;;;1.97;;
30147;SDS011;16960;49.404;8.248;2023-04-22T02:50:49;2.70;;;2.23;;
30147;SDS011;16960;49.404;8.248;2023-04-22T02:53:16;2.47;;;2.20;;
30147;SDS011;16960;49.404;8.248;2023-04-22T02:55:43;2.43;;;2.23;;
30147;SDS011;16960;49.404;8.248;2023-04-22T02:58:09;2.13;;;1.93;;
30147;SDS011;16960;49.404;8.248;2023-04-22T03:00:36;2.43;;;2.10;;
30147;SDS011;16960;49.404;8.248;2023-04-22T03:03:03;2.27;;;2.07;;
30147;SDS011;16960;49.404;8.248;2023-04-22T03:05:30;2.40;;;2.20;;
30147;SDS011;16960;49.404;8.248;2023-04-22T03:07:58;2.30;;;2.10;;
30147;SDS011;16960;49.404;8.248;2023-04-22T03:10:25;1.93;;;1.73;;
30147;SDS011;16960;49.404;8.248;2023-04-22T03:12:52;1.80;;;1.70;;
30147;SDS011;16960;49.404;8.248;2023-04-22T03:15:19;2.30;;;1.90;;
30147;SDS011;16960;49.404;8.248;2023-04-22T03:17:46;2.00;;;1.90;;
30147;SDS011;16960;49.404;8.248;2023-04-22T03:20:13;2.53;;;2.27;;
30147;SDS011;16960;49.404;8.248;2023-04-22T03:22:40;1.80;;;1.70;;
30147;SDS011;16960;49.404;8.248;2023-04-22T03:25:09;1.90;;;1.70;;
30147;SDS011;16960;49.404;8.248;2023-04-22T03:27:36;2.33;;;2.13;;
30147;SDS011;16960;49.404;8.248;2023-04-22T03:30:04;2.00;;;1.90;;
30147;SDS011;16960;49.404;8.248;2023-04-22T03:32:32;1.77;;;1.67;;
30147;SDS011;16960;49.404;8.248;2023-04-22T03:34:59;1.57;;;1.47;;
30147;SDS011;16960;49.404;8.248;2023-04-22T03:37:26;1.93;;;1.73;;
30147;SDS011;16960;49.404;8.248;2023-04-22T03:39:53;5.53;;;2.10;;
30147;SDS011;16960;49.404;8.248;2023-04-22T03:42:21;2.30;;;2.10;;
30147;SDS011;16960;49.404;8.248;2023-04-22T03:44:48;1.90;;;1.73;;
30147;SDS011;16960;49.404;8.248;2023-04-22T03:47:15;2.00;;;1.90;;
30147;SDS011;16960;49.404;8.248;2023-04-22T03:49:42;2.10;;;1.90;;
30147;SDS011;16960;49.404;8.248;2023-04-22T03:52:09;2.10;;;1.90;;
30147;SDS011;16960;49.404;8.248;2023-04-22T03:54:36;2.20;;;2.00;;
30147;SDS011;16960;49.404;8.248;2023-04-22T03:57:03;1.70;;;1.60;;
30147;SDS011;16960;49.404;8.248;2023-04-22T03:59:31;1.83;;;1.73;;
30147;SDS011;16960;49.404;8.248;2023-04-22T04:01:58;2.00;;;1.60;;
30147;SDS011;16960;49.404;8.248;2023-04-22T04:04:25;2.47;;;2.27;;
30147;SDS011;16960;49.404;8.248;2023-04-22T04:06:53;2.03;;;1.83;;
30147;SDS011;16960;49.404;8.248;2023-04-22T04:09:20;1.80;;;1.70;;
30147;SDS011;16960;49.404;8.248;2023-04-22T04:11:47;2.40;;;2.20;;
30147;SDS011;16960;49.404;8.248;2023-04-22T04:14:14;2.13;;;1.93;;
30147;SDS011;16960;49.404;8.248;2023-04-22T04:16:42;2.20;;;2.00;;
30147;SDS011;16960;49.404;8.248;2023-04-22T04:19:09;2.57;;;2.37;;
30147;SDS011;16960;49.404;8.248;2023-04-22T04:21:36;1.60;;;1.50;;
30147;SDS011;16960;49.404;8.248;2023-04-22T04:24:04;2.30;;;2.10;;
30147;SDS011;16960;49.404;8.248;2023-04-22T04:26:31;1.83;;;1.73;;
30147;SDS011;16960;49.404;8.248;2023-04-22T04:28:58;1.70;;;1.60;;
30147;SDS011;16960;49.404;8.248;2023-04-22T04:31:26;1.80;;;1.70;;
30147;SDS011;16960;49.404;8.248;2023-04-22T04:33:54;2.17;;;1.97;;
30147;SDS011;16960;49.404;8.248;2023-04-22T04:36:22;2.03;;;1.83;;
30147;SDS011;16960;49.404;8.248;2023-04-22T04:38:50;1.70;;;1.60;;
30147;SDS011;16960;49.404;8.248;2023-04-22T04:41:17;2.50;;;1.90;;
30147;SDS011;16960;49.404;8.248;2023-04-22T04:43:45;1.60;;;1.50;;
30147;SDS011;16960;49.404;8.248;2023-04-22T04:46:12;1.77;;;1.67;;
30147;SDS011;16960;49.404;8.248;2023-04-22T04:48:40;1.70;;;1.47;;
30147;SDS011;16960;49.404;8.248;2023-04-22T04:51:12;2.00;;;1.90;;
30147;SDS011;16960;49.404;8.248;2023-04-22T04:53:39;2.03;;;1.93;;
30147;SDS011;16960;49.404;8.248;2023-04-22T04:56:06;2.03;;;1.83;;
30147;SDS011;16960;49.404;8.248;2023-04-22T04:58:33;1.57;;;1.47;;
30147;SDS011;16960;49.404;8.248;2023-04-22T05:01:00;1.83;;;1.73;;
30147;SDS011;16960;49.404;8.248;2023-04-22T05:03:27;3.40;;;1.80;;
30147;SDS011;16960;49.404;8.248;2023-04-22T05:05:54;2.20;;;1.73;;
30147;SDS011;16960;49.404;8.248;2023-04-22T05:08:23;2.13;;;1.93;;
30147;SDS011;16960;49.404;8.248;2023-04-22T05:10:50;1.73;;;1.63;;
30147;SDS011;16960;49.404;8.248;2023-04-22T05:13:17;1.80;;;1.70;;
30147;SDS011;16960;49.404;8.248;2023-04-22T05:15:43;1.60;;;1.50;;
30147;SDS011;16960;49.404;8.248;2023-04-22T05:18:10;1.90;;;1.70;;
30147;SDS011;16960;49.404;8.248;2023-04-22T05:20:37;2.03;;;1.83;;
30147;SDS011;16960;49.404;8.248;2023-04-22T05:23:04;2.03;;;1.73;;
30147;SDS011;16960;49.404;8.248;2023-04-22T05:25:33;2.00;;;1.90;;
30147;SDS011;16960;49.404;8.248;2023-04-22T05:28:00;1.87;;;1.77;;
30147;SDS011;16960;49.404;8.248;2023-04-22T05:30:27;1.77;;;1.67;;
30147;SDS011;16960;49.404;8.248;2023-04-22T05:32:54;1.80;;;1.70;;
30147;SDS011;16960;49.404;8.248;2023-04-22T05:35:21;2.20;;;1.60;;
30147;SDS011;16960;49.404;8.248;2023-04-22T05:37:48;2.10;;;1.90;;
30147;SDS011;16960;49.404;8.248;2023-04-22T05:40:15;1.67;;;1.57;;
30147;SDS011;16960;49.404;8.248;2023-04-22T05:42:44;1.73;;;1.63;;
30147;SDS011;16960;49.404;8.248;2023-04-22T05:45:11;1.40;;;1.30;;
30147;SDS011;16960;49.404;8.248;2023-04-22T05:47:39;2.23;;;1.90;;
30147;SDS011;16960;49.404;8.248;2023-04-22T05:50:07;2.50;;;2.10;;
30147;SDS011;16960;49.404;8.248;2023-04-22T05:52:34;1.70;;;1.60;;
30147;SDS011;16960;49.404;8.248;2023-04-22T05:55:01;1.30;;;1.20;;
30147;SDS011;16960;49.404;8.248;2023-04-22T05:57:28;1.97;;;1.87;;
30147;SDS011;16960;49.404;8.248;2023-04-22T05:59:58;1.50;;;1.40;;
30147;SDS011;16960;49.404;8.248;2023-04-22T06:02:25;1.90;;;1.80;;
30147;SDS011;16960;49.404;8.248;2023-04-22T06:04:52;2.17;;;1.93;;
30147;SDS011;16960;49.404;8.248;2023-04-22T06:07:19;2.03;;;1.90;;
30147;SDS011;16960;49.404;8.248;2023-04-22T06:09:46;2.23;;;1.70;;
30147;SDS011;16960;49.404;8.248;2023-04-22T06:12:13;1.73;;;1.63;;
30147;SDS011;16960;49.404;8.248;2023-04-22T06:14:40;1.53;;;1.43;;
30147;SDS011;16960;49.404;8.248;2023-04-22T06:17:09;1.80;;;1.70;;
30147;SDS011;16960;49.404;8.248;2023-04-22T06:19:36;1.90;;;1.80;;
30147;SDS011;16960;49.404;8.248;2023-04-22T06:22:04;1.80;;;1.70;;
30147;SDS011;16960;49.404;8.248;2023-04-22T06:24:31;1.87;;;1.70;;
30147;SDS011;16960;49.404;8.248;2023-04-22T06:26:58;1.73;;;1.63;;
30147;SDS011;16960;49.404;8.248;2023-04-22T06:29:26;1.87;;;1.77;;
30147;SDS011;16960;49.404;8.248;2023-04-22T06:31:53;1.70;;;1.60;;
30147;SDS011;16960;49.404;8.248;2023-04-22T06:34:22;1.60;;;1.50;;
30147;SDS011;16960;49.404;8.248;2023-04-22T06:36:49;1.67;;;1.57;;
30147;SDS011;16960;49.404;8.248;2023-04-22T06:39:17;2.57;;;1.60;;
30147;SDS011;16960;49.404;8.248;2023-04-22T06:41:44;2.43;;;1.90;;
30147;SDS011;16960;49.404;8.248;2023-04-22T06:44:11;1.57;;;1.47;;
30147;SDS011;16960;49.404;8.248;2023-04-22T06:46:38;2.33;;;1.93;;
30147;SDS011;16960;49.404;8.248;2023-04-22T06:49:05;1.57;;;1.47;;
30147;SDS011;16960;49.404;8.248;2023-04-22T06:51:34;5.43;;;2.00;;
30147;SDS011;16960;49.404;8.248;2023-04-22T06:54:01;1.90;;;1.67;;
30147;SDS011;16960;49.404;8.248;2023-04-22T06:56:28;1.77;;;1.67;;
30147;SDS011;16960;49.404;8.248;2023-04-22T06:58:55;1.47;;;1.37;;
30147;SDS011;16960;49.404;8.248;2023-04-22T07:01:23;2.83;;;1.73;;
30147;SDS011;16960;49.404;8.248;2023-04-22T07:03:50;1.60;;;1.50;;
30147;SDS011;16960;49.404;8.248;2023-04-22T07:06:17;1.70;;;1.60;;
30147;SDS011;16960;49.404;8.248;2023-04-22T07:08:46;1.80;;;1.70;;
30147;SDS011;16960;49.404;8.248;2023-04-22T07:11:13;2.07;;;1.63;;
30147;SDS011;16960;49.404;8.248;2023-04-22T07:13:40;2.87;;;2.20;;
30147;SDS011;16960;49.404;8.248;2023-04-22T07:16:07;2.57;;;2.07;;
30147;SDS011;16960;49.404;8.248;2023-04-22T07:18:34;4.53;;;2.20;;
30147;SDS011;16960;49.404;8.248;2023-04-22T07:21:01;3.53;;;2.07;;
30147;SDS011;16960;49.404;8.248;2023-04-22T07:23:28;2.00;;;1.90;;
30147;SDS011;16960;49.404;8.248;2023-04-22T07:25:57;2.60;;;1.87;;
30147;SDS011;16960;49.404;8.248;2023-04-22T07:28:24;2.67;;;2.47;;
30147;SDS011;16960;49.404;8.248;2023-04-22T07:30:52;3.53;;;2.20;;
30147;SDS011;16960;49.404;8.248;2023-04-22T07:33:19;3.00;;;2.80;;
30147;SDS011;16960;49.404;8.248;2023-04-22T07:35:46;3.27;;;2.83;;
30147;SDS011;16960;49.404;8.248;2023-04-22T07:38:14;3.70;;;2.70;;
30147;SDS011;16960;49.404;8.248;2023-04-22T07:40:41;4.57;;;2.57;;
30147;SDS011;16960;49.404;8.248;2023-04-22T07:43:10;3.70;;;3.23;;
30147;SDS011;16960;49.404;8.248;2023-04-22T07:45:38;2.83;;;2.63;;
30147;SDS011;16960;49.404;8.248;2023-04-22T07:48:05;4.00;;;2.43;;
30147;SDS011;16960;49.404;8.248;2023-04-22T07:50:32;2.93;;;2.73;;
30147;SDS011;16960;49.404;8.248;2023-04-22T07:52:59;4.20;;;3.10;;
30147;SDS011;16960;49.404;8.248;2023-04-22T07:55:26;3.37;;;2.97;;
30147;SDS011;16960;49.404;8.248;2023-04-22T07:57:53;3.07;;;2.77;;
30147;SDS011;16960;49.404;8.248;2023-04-22T08:00:22;2.83;;;2.63;;
30147;SDS011;16960;49.404;8.248;2023-04-22T08:02:49;3.60;;;3.30;;
30147;SDS011;16960;49.404;8.248;2023-04-22T08:05:16;3.50;;;3.20;;
30147;SDS011;16960;49.404;8.248;2023-04-22T08:07:43;3.50;;;3.13;;
30147;SDS011;16960;49.404;8.248;2023-04-22T08:10:10;3.60;;;3.30;;
30147;SDS011;16960;49.404;8.248;2023-04-22T08:12:37;7.50;;;3.80;;
30147;SDS011;16960;49.404;8.248;2023-04-22T08:15:04;3.03;;;2.83;;
30147;SDS011;16960;49.404;8.248;2023-04-22T08:17:33;3.20;;;2.90;;
30147;SDS011;16960;49.404;8.248;2023-04-22T08:20:00;3.33;;;2.87;;
30147;SDS011;16960;49.404;8.248;2023-04-22T08:22:28;3.47;;;3.17;;
30147;SDS011;16960;49.404;8.248;2023-04-22T08:24:56;3.63;;;3.33;;
30147;SDS011;16960;49.404;8.248;2023-04-22T08:27:24;3.70;;;3.40;;
30147;SDS011;16960;49.404;8.248;2023-04-22T08:29:51;3.63;;;3.30;;
30147;SDS011;16960;49.404;8.248;2023-04-22T08:32:18;3.30;;;3.10;;
30147;SDS011;16960;49.404;8.248;2023-04-22T08:34:48;5.00;;;3.90;;
30147;SDS011;16960;49.404;8.248;2023-04-22T08:37:15;7.93;;;3.57;;
30147;SDS011;16960;49.404;8.248;2023-04-22T08:39:43;5.03;;;3.37;;
30147;SDS011;16960;49.404;8.248;2023-04-22T08:42:10;3.87;;;3.40;;
30147;SDS011;16960;49.404;8.248;2023-04-22T08:44:38;3.10;;;2.90;;
30147;SDS011;16960;49.404;8.248;2023-04-22T08:47:05;4.67;;;2.87;;
30147;SDS011;16960;49.404;8.248;2023-04-22T08:49:33;3.30;;;3.00;;
30147;SDS011;16960;49.404;8.248;2023-04-22T08:52:02;4.73;;;2.80;;
30147;SDS011;16960;49.404;8.248;2023-04-22T08:54:29;4.83;;;3.40;;
30147;SDS011;16960;49.404;8.248;2023-04-22T08:56:57;3.33;;;3.07;;
30147;SDS011;16960;49.404;8.248;2023-04-22T08:59:26;4.37;;;3.40;;
30147;SDS011;16960;49.404;8.248;2023-04-22T09:01:53;3.50;;;3.20;;
30147;SDS011;16960;49.404;8.248;2023-04-22T09:04:22;3.90;;;2.60;;
30147;SDS011;16960;49.404;8.248;2023-04-22T09:06:49;3.50;;;2.87;;
30147;SDS011;16960;49.404;8.248;2023-04-22T09:09:19;3.10;;;2.73;;
30147;SDS011;16960;49.404;8.248;2023-04-22T09:11:47;3.17;;;2.80;;
30147;SDS011;16960;49.404;8.248;2023-04-22T09:14:14;3.10;;;2.50;;
30147;SDS011;16960;49.404;8.248;2023-04-22T09:16:45;2.70;;;2.50;;
30147;SDS011;16960;49.404;8.248;2023-04-22T09:19:13;3.03;;;2.73;;
30147;SDS011;16960;49.404;8.248;2023-04-22T09:21:40;3.10;;;2.73;;
30147;SDS011;16960;49.404;8.248;2023-04-22T09:24:09;3.90;;;3.60;;
30147;SDS011;16960;49.404;8.248;2023-04-22T09:26:39;3.50;;;3.20;;
30147;SDS011;16960;49.404;8.248;2023-04-22T09:29:12;4.27;;;3.20;;
30147;SDS011;16960;49.404;8.248;2023-04-22T09:31:40;5.07;;;3.17;;
30147;SDS011;16960;49.404;8.248;2023-04-22T09:34:07;3.77;;;3.47;;
30147;SDS011;16960;49.404;8.248;2023-04-22T09:36:35;3.03;;;2.73;;
30147;SDS011;16960;49.404;8.248;2023-04-22T09:39:02;3.33;;;3.10;;
30147;SDS011;16960;49.404;8.248;2023-04-22T09:41:32;3.80;;;3.50;;
30147;SDS011;16960;49.404;8.248;2023-04-22T09:44:02;3.33;;;3.03;;
30147;SDS011;16960;49.404;8.248;2023-04-22T09:46:30;2.87;;;2.50;;
30147;SDS011;16960;49.404;8.248;2023-04-22T09:48:59;3.23;;;2.87;;
30147;SDS011;16960;49.404;8.248;2023-04-22T09:51:27;2.90;;;2.70;;
30147;SDS011;16960;49.404;8.248;2023-04-22T09:53:58;5.10;;;3.40;;
30147;SDS011;16960;49.404;8.248;2023-04-22T09:59:21;3.33;;;3.03;;
30147;SDS011;16960;49.404;8.248;2023-04-22T10:01:50;3.40;;;3.10;;
30147;SDS011;16960;49.404;8.248;2023-04-22T10:04:18;3.27;;;2.90;;
30147;SDS011;16960;49.404;8.248;2023-04-22T10:06:47;3.83;;;3.07;;
30147;SDS011;16960;49.404;8.248;2023-04-22T10:09:16;3.53;;;3.03;;
30147;SDS011;16960;49.404;8.248;2023-04-22T10:11:44;3.70;;;2.73;;
30147;SDS011;16960;49.404;8.248;2023-04-22T10:14:12;2.83;;;2.60;;
30147;SDS011;16960;49.404;8.248;2023-04-22T10:16:42;3.57;;;2.97;;
30147;SDS011;16960;49.404;8.248;2023-04-22T10:19:12;3.40;;;3.10;;
30147;SDS011;16960;49.404;8.248;2023-04-22T10:21:42;3.77;;;3.03;;
30147;SDS011;16960;49.404;8.248;2023-04-22T10:24:13;5.20;;;3.20;;
30147;SDS011;16960;49.404;8.248;2023-04-22T10:26:42;3.30;;;3.00;;
30147;SDS011;16960;49.404;8.248;2023-04-22T10:29:14;4.40;;;2.37;;
30147;SDS011;16960;49.404;8.248;2023-04-22T10:31:49;2.83;;;2.63;;
30147;SDS011;16960;49.404;8.248;2023-04-22T10:34:18;4.27;;;2.83;;
30147;SDS011;16960;49.404;8.248;2023-04-22T10:36:52;2.73;;;2.47;;
30147;SDS011;16960;49.404;8.248;2023-04-22T10:39:21;2.50;;;2.30;;
30147;SDS011;16960;49.404;8.248;2023-04-22T10:41:53;3.53;;;2.53;;
30147;SDS011;16960;49.404;8.248;2023-04-22T10:44:43;3.20;;;2.70;;
30147;SDS011;16960;49.404;8.248;2023-04-22T10:47:26;4.33;;;2.07;;
30147;SDS011;16960;49.404;8.248;2023-04-22T10:52:46;3.33;;;2.50;;
30147;SDS011;16960;49.404;8.248;2023-04-22T10:55:14;3.07;;;2.47;;
30147;SDS011;16960;49.404;8.248;2023-04-22T10:57:42;2.43;;;2.23;;
30147;SDS011;16960;49.404;8.248;2023-04-22T11:00:26;3.00;;;2.70;;
30147;SDS011;16960;49.404;8.248;2023-04-22T11:03:10;4.23;;;2.00;;
30147;SDS011;16960;49.404;8.248;2023-04-22T11:05:39;2.80;;;2.30;;
30147;SDS011;16960;49.404;8.248;2023-04-22T11:08:07;3.10;;;2.43;;
30147;SDS011;16960;49.404;8.248;2023-04-22T11:10:38;2.63;;;2.43;;
30147;SDS011;16960;49.404;8.248;2023-04-22T11:13:07;2.30;;;2.10;;
30147;SDS011;16960;49.404;8.248;2023-04-22T11:15:37;2.80;;;2.57;;
30147;SDS011;16960;49.404;8.248;2023-04-22T11:18:12;3.10;;;2.40;;
30147;SDS011;16960;49.404;8.248;2023-04-22T11:20:40;5.33;;;2.20;;
30147;SDS011;16960;49.404;8.248;2023-04-22T11:23:07;2.87;;;2.47;;
30147;SDS011;16960;49.404;8.248;2023-04-22T11:25:35;2.63;;;2.40;;
30147;SDS011;16960;49.404;8.248;2023-04-22T11:28:02;2.40;;;2.20;;
30147;SDS011;16960;49.404;8.248;2023-04-22T11:30:29;4.63;;;1.80;;
30147;SDS011;16960;49.404;8.248;2023-04-22T11:32:57;2.87;;;2.53;;
30147;SDS011;16960;49.404;8.248;2023-04-22T11:35:28;3.53;;;2.33;;
30147;SDS011;16960;49.404;8.248;2023-04-22T11:37:57;4.37;;;2.30;;
30147;SDS011;16960;49.404;8.248;2023-04-22T11:40:26;3.00;;;2.37;;
30147;SDS011;16960;49.404;8.248;2023-04-22T11:42:54;4.23;;;2.53;;
30147;SDS011;16960;49.404;8.248;2023-04-22T11:45:22;2.43;;;2.23;;
30147;SDS011;16960;49.404;8.248;2023-04-22T11:47:50;4.03;;;2.60;;
30147;SDS011;16960;49.404;8.248;2023-04-22T11:50:20;2.00;;;1.80;;
30147;SDS011;16960;49.404;8.248;2023-04-22T11:52:50;4.80;;;2.53;;
30147;SDS011;16960;49.404;8.248;2023-04-22T11:55:20;3.20;;;2.37;;
30147;SDS011;16960;49.404;8.248;2023-04-22T11:57:53;2.60;;;2.20;;
30147;SDS011;16960;49.404;8.248;2023-04-22T12:00:21;3.40;;;2.23;;
30147;SDS011;16960;49.404;8.248;2023-04-22T12:02:59;5.67;;;2.43;;
30147;SDS011;16960;49.404;8.248;2023-04-22T12:05:31;4.17;;;2.40;;
30147;SDS011;16960;49.404;8.248;2023-04-22T12:08:04;2.20;;;2.10;;
30147;SDS011;16960;49.404;8.248;2023-04-22T12:10:33;5.13;;;2.60;;
30147;SDS011;16960;49.404;8.248;2023-04-22T12:13:04;2.50;;;2.30;;
30147;SDS011;16960;49.404;8.248;2023-04-22T12:15:38;2.97;;;2.30;;
30147;SDS011;16960;49.404;8.248;2023-04-22T12:18:07;2.17;;;1.93;;
30147;SDS011;16960;49.404;8.248;2023-04-22T12:20:37;4.23;;;2.20;;
30147;SDS011;16960;49.404;8.248;2023-04-22T12:23:06;2.50;;;2.30;;
30147;SDS011;16960;49.404;8.248;2023-04-22T12:25:38;4.30;;;2.43;;
30147;SDS011;16960;49.404;8.248;2023-04-22T12:28:06;3.30;;;2.30;;
30147;SDS011;16960;49.404;8.248;2023-04-22T12:30:33;3.97;;;2.27;;
30147;SDS011;16960;49.404;8.248;2023-04-22T12:33:00;4.10;;;2.63;;
30147;SDS011;16960;49.404;8.248;2023-04-22T12:35:27;2.50;;;2.30;;
30147;SDS011;16960;49.404;8.248;2023-04-22T12:37:54;3.20;;;2.40;;
30147;SDS011;16960;49.404;8.248;2023-04-22T12:40:22;4.10;;;2.43;;
30147;SDS011;16960;49.404;8.248;2023-04-22T12:42:49;2.60;;;2.10;;
30147;SDS011;16960;49.404;8.248;2023-04-22T12:45:16;2.67;;;2.47;;
30147;SDS011;16960;49.404;8.248;2023-04-22T12:47:43;3.70;;;2.10;;
30147;SDS011;16960;49.404;8.248;2023-04-22T12:50:11;2.83;;;2.43;;
30147;SDS011;16960;49.404;8.248;2023-04-22T12:52:38;2.53;;;2.33;;
30147;SDS011;16960;49.404;8.248;2023-04-22T12:55:05;3.50;;;2.50;;
30147;SDS011;16960;49.404;8.248;2023-04-22T12:57:34;2.30;;;2.10;;
30147;SDS011;16960;49.404;8.248;2023-04-22T13:00:02;3.90;;;2.33;;
30147;SDS011;16960;49.404;8.248;2023-04-22T13:02:31;3.70;;;2.30;;
30147;SDS011;16960;49.404;8.248;2023-04-22T13:04:58;3.80;;;2.07;;
30147;SDS011;16960;49.404;8.248;2023-04-22T13:07:25;4.17;;;2.30;;
30147;SDS011;16960;49.404;8.248;2023-04-22T13:09:52;3.00;;;2.10;;
30147;SDS011;16960;49.404;8.248;2023-04-22T13:12:19;2.37;;;1.97;;
30147;SDS011;16960;49.404;8.248;2023-04-22T13:14:48;2.83;;;1.83;;
30147;SDS011;16960;49.404;8.248;2023-04-22T13:17:15;2.70;;;1.60;;
30147;SDS011;16960;49.404;8.248;2023-04-22T13:19:42;2.10;;;1.90;;
30147;SDS011;16960;49.404;8.248;2023-04-22T13:22:09;4.50;;;2.30;;
30147;SDS011;16960;49.404;8.248;2023-04-22T13:24:36;3.30;;;2.37;;
30147;SDS011;16960;49.404;8.248;2023-04-22T13:27:03;1.70;;;1.60;;
30147;SDS011;16960;49.404;8.248;2023-04-22T13:29:31;3.97;;;1.80;;
30147;SDS011;16960;49.404;8.248;2023-04-22T13:31:59;2.40;;;1.60;;
30147;SDS011;16960;49.404;8.248;2023-04-22T13:34:27;2.33;;;1.90;;
30147;SDS011;16960;49.404;8.248;2023-04-22T13:36:55;2.17;;;1.57;;
30147;SDS011;16960;49.404;8.248;2023-04-22T13:39:22;1.60;;;1.50;;
30147;SDS011;16960;49.404;8.248;2023-04-22T13:41:49;1.73;;;1.63;;
30147;SDS011;16960;49.404;8.248;2023-04-22T13:44:17;2.10;;;1.83;;
30147;SDS011;16960;49.404;8.248;2023-04-22T13:46:44;2.70;;;1.97;;
30147;SDS011;16960;49.404;8.248;2023-04-22T13:49:12;4.40;;;2.20;;
30147;SDS011;16960;49.404;8.248;2023-04-22T13:51:39;3.43;;;1.77;;
30147;SDS011;16960;49.404;8.248;2023-04-22T13:54:06;2.77;;;1.80;;
30147;SDS011;16960;49.404;8.248;2023-04-22T13:56:34;1.63;;;1.53;;
30147;SDS011;16960;49.404;8.248;2023-04-22T13:59:01;3.70;;;1.77;;
30147;SDS011;16960;49.404;8.248;2023-04-22T14:01:28;1.87;;;1.77;;
30147;SDS011;16960;49.404;8.248;2023-04-22T14:03:55;2.50;;;1.60;;
30147;SDS011;16960;49.404;8.248;2023-04-22T14:06:24;2.60;;;1.70;;
30147;SDS011;16960;49.404;8.248;2023-04-22T14:08:51;2.37;;;1.70;;
30147;SDS011;16960;49.404;8.248;2023-04-22T14:11:18;1.73;;;1.47;;
30147;SDS011;16960;49.404;8.248;2023-04-22T14:13:45;2.50;;;1.20;;
30147;SDS011;16960;49.404;8.248;2023-04-22T14:16:12;2.10;;;1.50;;
30147;SDS011;16960;49.404;8.248;2023-04-22T14:18:40;4.83;;;1.80;;
30147;SDS011;16960;49.404;8.248;2023-04-22T14:21:09;2.70;;;1.70;;
30147;SDS011;16960;49.404;8.248;2023-04-22T14:23:39;2.13;;;1.63;;
30147;SDS011;16960;49.404;8.248;2023-04-22T14:26:07;2.70;;;1.60;;
30147;SDS011;16960;49.404;8.248;2023-04-22T14:28:36;2.30;;;1.70;;
30147;SDS011;16960;49.404;8.248;2023-04-22T14:31:04;2.00;;;1.80;;
30147;SDS011;16960;49.404;8.248;2023-04-22T14:33:32;1.63;;;1.50;;
30147;SDS011;16960;49.404;8.248;2023-04-22T14:35:59;1.83;;;1.57;;
30147;SDS011;16960;49.404;8.248;2023-04-22T14:38:26;2.23;;;1.77;;
30147;SDS011;16960;49.404;8.248;2023-04-22T14:40:55;1.93;;;1.60;;
30147;SDS011;16960;49.404;8.248;2023-04-22T14:43:22;5.60;;;1.50;;
30147;SDS011;16960;49.404;8.248;2023-04-22T14:45:49;1.80;;;1.70;;
30147;SDS011;16960;49.404;8.248;2023-04-22T14:48:15;1.83;;;1.43;;
30147;SDS011;16960;49.404;8.248;2023-04-22T14:50:42;3.30;;;2.40;;
30147;SDS011;16960;49.404;8.248;2023-04-22T14:53:10;2.10;;;1.90;;
30147;SDS011;16960;49.404;8.248;2023-04-22T14:55:37;2.57;;;1.60;;
30147;SDS011;16960;49.404;8.248;2023-04-22T14:58:06;3.13;;;1.73;;